sensor_id;sensor_type;location;lat;lon;timestamp;P1;durP1;ratioP1;P2;durP2;ratioP2
52072;SDS011;38074;51.232;6.826;2023-04-03T00:03:01;1.27;;;0.47;;
52072;SDS011;38074;51.232;6.826;2023-04-03T00:10:17;0.68;;;0.30;;
52072;SDS011;38074;51.232;6.826;2023-04-03T00:17:32;1.33;;;0.40;;
52072;SDS011;38074;51.232;6.826;2023-04-03T00:24:48;0.70;;;0.47;;
52072;SDS011;38074;51.232;6.826;2023-04-03T00:32:03;0.90;;;0.30;;
52072;SDS011;38074;51.232;6.826;2023-04-03T00:39:19;0.90;;;0.43;;
52072;SDS011;38074;51.232;6.826;2023-04-03T00:46:35;0.80;;;0.50;;
52072;SDS011;38074;51.232;6.826;2023-04-03T00:53:52;1.70;;;0.40;;
52072;SDS011;38074;51.232;6.826;2023-04-03T01:01:12;0.90;;;0.40;;
52072;SDS011;38074;51.232;6.826;2023-04-03T01:08:30;0.73;;;0.35;;
52072;SDS011;38074;51.232;6.826;2023-04-03T01:15:46;0.70;;;0.30;;
52072;SDS011;38074;51.232;6.826;2023-04-03T01:30:30;1.95;;;0.30;;
52072;SDS011;38074;51.232;6.826;2023-04-03T01:37:49;0.95;;;0.40;;
52072;SDS011;38074;51.232;6.826;2023-04-03T01:45:04;0.43;;;0.30;;
52072;SDS011;38074;51.232;6.826;2023-04-03T01:52:20;0.65;;;0.30;;
52072;SDS011;38074;51.232;6.826;2023-04-03T01:59:36;0.63;;;0.30;;
52072;SDS011;38074;51.232;6.826;2023-04-03T02:06:51;0.43;;;0.27;;
52072;SDS011;38074;51.232;6.826;2023-04-03T02:14:07;0.60;;;0.30;;
52072;SDS011;38074;51.232;6.826;2023-04-03T02:21:23;0.50;;;0.35;;
52072;SDS011;38074;51.232;6.826;2023-04-03T02:28:38;0.70;;;0.30;;
52072;SDS011;38074;51.232;6.826;2023-04-03T02:35:54;0.52;;;0.30;;
52072;SDS011;38074;51.232;6.826;2023-04-03T02:43:11;1.05;;;0.40;;
52072;SDS011;38074;51.232;6.826;2023-04-03T02:50:26;0.63;;;0.40;;
52072;SDS011;38074;51.232;6.826;2023-04-03T02:57:42;0.50;;;0.20;;
52072;SDS011;38074;51.232;6.826;2023-04-03T03:04:57;0.40;;;0.30;;
52072;SDS011;38074;51.232;6.826;2023-04-03T03:12:13;0.50;;;0.30;;
52072;SDS011;38074;51.232;6.826;2023-04-03T03:19:28;0.67;;;0.30;;
52072;SDS011;38074;51.232;6.826;2023-04-03T03:26:44;0.60;;;0.30;;
52072;SDS011;38074;51.232;6.826;2023-04-03T03:34:00;0.93;;;0.30;;
52072;SDS011;38074;51.232;6.826;2023-04-03T03:41:15;0.43;;;0.40;;
52072;SDS011;38074;51.232;6.826;2023-04-03T03:48:31;0.50;;;0.30;;
52072;SDS011;38074;51.232;6.826;2023-04-03T03:55:47;1.13;;;0.30;;
52072;SDS011;38074;51.232;6.826;2023-04-03T04:03:03;0.60;;;0.20;;
52072;SDS011;38074;51.232;6.826;2023-04-03T04:10:18;1.02;;;0.40;;
52072;SDS011;38074;51.232;6.826;2023-04-03T04:17:34;0.82;;;0.30;;
52072;SDS011;38074;51.232;6.826;2023-04-03T04:24:50;0.47;;;0.20;;
52072;SDS011;38074;51.232;6.826;2023-04-03T04:32:05;0.30;;;0.20;;
52072;SDS011;38074;51.232;6.826;2023-04-03T04:39:21;0.87;;;0.30;;
52072;SDS011;38074;51.232;6.826;2023-04-03T04:46:36;2.03;;;0.30;;
52072;SDS011;38074;51.232;6.826;2023-04-03T04:53:52;1.00;;;0.40;;
52072;SDS011;38074;51.232;6.826;2023-04-03T05:01:08;0.60;;;0.30;;
52072;SDS011;38074;51.232;6.826;2023-04-03T05:08:25;0.77;;;0.30;;
52072;SDS011;38074;51.232;6.826;2023-04-03T05:15:40;0.53;;;0.30;;
52072;SDS011;38074;51.232;6.826;2023-04-03T05:22:56;0.60;;;0.20;;
52072;SDS011;38074;51.232;6.826;2023-04-03T05:30:11;0.53;;;0.30;;
52072;SDS011;38074;51.232;6.826;2023-04-03T05:37:28;0.65;;;0.30;;
52072;SDS011;38074;51.232;6.826;2023-04-03T05:44:43;0.20;;;0.20;;
52072;SDS011;38074;51.232;6.826;2023-04-03T05:52:01;0.95;;;0.38;;
52072;SDS011;38074;51.232;6.826;2023-04-03T05:59:17;2.35;;;0.30;;
52072;SDS011;38074;51.232;6.826;2023-04-03T06:14:22;1.23;;;0.50;;
52072;SDS011;38074;51.232;6.826;2023-04-03T06:21:37;9.17;;;1.93;;
52072;SDS011;38074;51.232;6.826;2023-04-03T06:28:53;4.43;;;1.00;;
52072;SDS011;38074;51.232;6.826;2023-04-03T06:36:10;6.07;;;1.40;;
52072;SDS011;38074;51.232;6.826;2023-04-03T06:43:26;10.55;;;1.80;;
52072;SDS011;38074;51.232;6.826;2023-04-03T06:50:42;6.85;;;1.00;;
52072;SDS011;38074;51.232;6.826;2023-04-03T06:57:58;12.32;;;1.20;;
52072;SDS011;38074;51.232;6.826;2023-04-03T07:05:14;4.40;;;0.97;;
52072;SDS011;38074;51.232;6.826;2023-04-03T07:12:30;4.63;;;1.20;;
52072;SDS011;38074;51.232;6.826;2023-04-03T07:19:46;9.43;;;0.93;;
52072;SDS011;38074;51.232;6.826;2023-04-03T07:27:01;2.30;;;0.87;;
52072;SDS011;38074;51.232;6.826;2023-04-03T07:34:17;5.90;;;1.30;;
52072;SDS011;38074;51.232;6.826;2023-04-03T07:41:33;4.60;;;0.93;;
52072;SDS011;38074;51.232;6.826;2023-04-03T07:48:49;1.85;;;0.70;;
52072;SDS011;38074;51.232;6.826;2023-04-03T07:56:04;2.70;;;0.60;;
52072;SDS011;38074;51.232;6.826;2023-04-03T08:03:20;2.30;;;0.30;;
52072;SDS011;38074;51.232;6.826;2023-04-03T08:10:36;3.00;;;0.75;;
52072;SDS011;38074;51.232;6.826;2023-04-03T08:17:52;1.52;;;0.30;;
52072;SDS011;38074;51.232;6.826;2023-04-03T08:25:08;3.17;;;0.40;;
52072;SDS011;38074;51.232;6.826;2023-04-03T08:32:24;2.38;;;0.45;;
52072;SDS011;38074;51.232;6.826;2023-04-03T08:39:40;1.48;;;0.30;;
52072;SDS011;38074;51.232;6.826;2023-04-03T08:54:52;0.85;;;0.30;;
52072;SDS011;38074;51.232;6.826;2023-04-03T09:02:21;1.10;;;0.30;;
52072;SDS011;38074;51.232;6.826;2023-04-03T09:09:56;0.63;;;0.30;;
52072;SDS011;38074;51.232;6.826;2023-04-03T09:24:47;1.10;;;0.30;;
52072;SDS011;38074;51.232;6.826;2023-04-03T09:39:51;1.17;;;0.32;;
52072;SDS011;38074;51.232;6.826;2023-04-03T09:47:18;0.57;;;0.20;;
52072;SDS011;38074;51.232;6.826;2023-04-03T09:54:37;0.68;;;0.10;;
52072;SDS011;38074;51.232;6.826;2023-04-03T10:01:59;0.60;;;0.20;;
52072;SDS011;38074;51.232;6.826;2023-04-03T10:09:25;0.90;;;0.20;;
52072;SDS011;38074;51.232;6.826;2023-04-03T10:16:56;1.45;;;0.20;;
52072;SDS011;38074;51.232;6.826;2023-04-03T10:39:42;0.60;;;0.20;;
52072;SDS011;38074;51.232;6.826;2023-04-03T10:47:13;0.98;;;0.20;;
52072;SDS011;38074;51.232;6.826;2023-04-03T11:02:23;0.52;;;0.20;;
52072;SDS011;38074;51.232;6.826;2023-04-03T11:09:44;0.52;;;0.20;;
52072;SDS011;38074;51.232;6.826;2023-04-03T11:24:34;4.38;;;0.63;;
52072;SDS011;38074;51.232;6.826;2023-04-03T11:32:16;1.45;;;0.32;;
52072;SDS011;38074;51.232;6.826;2023-04-03T11:39:54;2.63;;;0.28;;
52072;SDS011;38074;51.232;6.826;2023-04-03T11:47:12;1.02;;;0.30;;
52072;SDS011;38074;51.232;6.826;2023-04-03T12:02:36;1.85;;;0.20;;
52072;SDS011;38074;51.232;6.826;2023-04-03T12:09:54;1.75;;;0.30;;
52072;SDS011;38074;51.232;6.826;2023-04-03T12:17:19;1.25;;;0.30;;
52072;SDS011;38074;51.232;6.826;2023-04-03T12:24:43;3.85;;;0.32;;
52072;SDS011;38074;51.232;6.826;2023-04-03T12:46:53;0.80;;;0.20;;
52072;SDS011;38074;51.232;6.826;2023-04-03T13:01:40;2.50;;;0.40;;
52072;SDS011;38074;51.232;6.826;2023-04-03T13:08:57;3.15;;;0.63;;
52072;SDS011;38074;51.232;6.826;2023-04-03T13:16:16;5.95;;;0.50;;
52072;SDS011;38074;51.232;6.826;2023-04-03T13:23:32;3.55;;;0.45;;
52072;SDS011;38074;51.232;6.826;2023-04-03T13:30:54;2.58;;;0.40;;
52072;SDS011;38074;51.232;6.826;2023-04-03T13:45:35;1.42;;;0.13;;
52072;SDS011;38074;51.232;6.826;2023-04-03T14:00:33;0.75;;;0.20;;
52072;SDS011;38074;51.232;6.826;2023-04-03T14:07:53;1.85;;;0.38;;
52072;SDS011;38074;51.232;6.826;2023-04-03T14:15:17;1.38;;;0.30;;
52072;SDS011;38074;51.232;6.826;2023-04-03T14:22:41;0.40;;;0.17;;
52072;SDS011;38074;51.232;6.826;2023-04-03T14:29:57;1.13;;;0.30;;
52072;SDS011;38074;51.232;6.826;2023-04-03T14:37:15;0.52;;;0.10;;
52072;SDS011;38074;51.232;6.826;2023-04-03T14:44:33;0.70;;;0.30;;
52072;SDS011;38074;51.232;6.826;2023-04-03T14:51:48;0.93;;;0.13;;
52072;SDS011;38074;51.232;6.826;2023-04-03T14:59:05;1.80;;;0.30;;
52072;SDS011;38074;51.232;6.826;2023-04-03T15:06:25;2.00;;;0.20;;
52072;SDS011;38074;51.232;6.826;2023-04-03T15:13:41;2.92;;;0.70;;
52072;SDS011;38074;51.232;6.826;2023-04-03T15:20:57;5.05;;;0.30;;
52072;SDS011;38074;51.232;6.826;2023-04-03T15:28:19;2.30;;;0.40;;
52072;SDS011;38074;51.232;6.826;2023-04-03T15:35:40;2.72;;;0.30;;
52072;SDS011;38074;51.232;6.826;2023-04-03T15:42:56;1.52;;;0.35;;
52072;SDS011;38074;51.232;6.826;2023-04-03T15:50:11;2.57;;;0.40;;
52072;SDS011;38074;51.232;6.826;2023-04-03T15:57:27;2.60;;;0.67;;
52072;SDS011;38074;51.232;6.826;2023-04-03T16:04:43;2.60;;;0.30;;
52072;SDS011;38074;51.232;6.826;2023-04-03T16:11:58;19.93;;;1.70;;
52072;SDS011;38074;51.232;6.826;2023-04-03T16:19:15;7.23;;;0.60;;
52072;SDS011;38074;51.232;6.826;2023-04-03T16:26:31;11.02;;;0.85;;
52072;SDS011;38074;51.232;6.826;2023-04-03T16:33:47;4.88;;;0.55;;
52072;SDS011;38074;51.232;6.826;2023-04-03T16:41:02;6.03;;;0.80;;
52072;SDS011;38074;51.232;6.826;2023-04-03T16:48:19;14.05;;;1.80;;
52072;SDS011;38074;51.232;6.826;2023-04-03T16:55:35;5.10;;;0.80;;
52072;SDS011;38074;51.232;6.826;2023-04-03T17:02:50;3.88;;;0.73;;
52072;SDS011;38074;51.232;6.826;2023-04-03T17:10:06;8.93;;;1.33;;
52072;SDS011;38074;51.232;6.826;2023-04-03T17:17:23;6.60;;;1.30;;
52072;SDS011;38074;51.232;6.826;2023-04-03T17:24:40;9.20;;;1.25;;
52072;SDS011;38074;51.232;6.826;2023-04-03T17:31:56;8.57;;;1.40;;
52072;SDS011;38074;51.232;6.826;2023-04-03T17:39:11;8.73;;;1.10;;
52072;SDS011;38074;51.232;6.826;2023-04-03T17:46:27;5.47;;;0.80;;
52072;SDS011;38074;51.232;6.826;2023-04-03T17:53:43;8.27;;;1.23;;
52072;SDS011;38074;51.232;6.826;2023-04-03T18:01:06;7.93;;;1.10;;
52072;SDS011;38074;51.232;6.826;2023-04-03T18:08:33;8.77;;;0.85;;
52072;SDS011;38074;51.232;6.826;2023-04-03T18:15:51;6.55;;;0.77;;
52072;SDS011;38074;51.232;6.826;2023-04-03T18:23:07;4.03;;;0.80;;
52072;SDS011;38074;51.232;6.826;2023-04-03T18:30:23;6.35;;;0.88;;
52072;SDS011;38074;51.232;6.826;2023-04-03T18:44:57;2.30;;;0.65;;
52072;SDS011;38074;51.232;6.826;2023-04-03T18:52:15;2.22;;;0.60;;
52072;SDS011;38074;51.232;6.826;2023-04-03T18:59:30;3.47;;;0.30;;
52072;SDS011;38074;51.232;6.826;2023-04-03T19:06:46;1.38;;;0.40;;
52072;SDS011;38074;51.232;6.826;2023-04-03T19:14:02;2.88;;;0.40;;
52072;SDS011;38074;51.232;6.826;2023-04-03T19:21:18;1.65;;;0.45;;
52072;SDS011;38074;51.232;6.826;2023-04-03T19:28:34;3.00;;;0.40;;
52072;SDS011;38074;51.232;6.826;2023-04-03T19:35:50;4.32;;;0.70;;
52072;SDS011;38074;51.232;6.826;2023-04-03T19:43:06;2.15;;;0.40;;
52072;SDS011;38074;51.232;6.826;2023-04-03T19:50:21;5.33;;;0.80;;
52072;SDS011;38074;51.232;6.826;2023-04-03T19:57:37;6.73;;;1.50;;
52072;SDS011;38074;51.232;6.826;2023-04-03T20:04:52;5.43;;;0.70;;
52072;SDS011;38074;51.232;6.826;2023-04-03T20:12:08;7.60;;;1.10;;
52072;SDS011;38074;51.232;6.826;2023-04-03T20:19:24;7.63;;;0.90;;
52072;SDS011;38074;51.232;6.826;2023-04-03T20:26:40;6.65;;;0.93;;
52072;SDS011;38074;51.232;6.826;2023-04-03T20:34:00;5.80;;;1.00;;
52072;SDS011;38074;51.232;6.826;2023-04-03T20:41:16;4.22;;;0.85;;
52072;SDS011;38074;51.232;6.826;2023-04-03T20:48:31;4.20;;;0.97;;
52072;SDS011;38074;51.232;6.826;2023-04-03T20:55:53;4.80;;;0.80;;
52072;SDS011;38074;51.232;6.826;2023-04-03T21:03:13;3.03;;;0.60;;
52072;SDS011;38074;51.232;6.826;2023-04-03T21:26:06;5.28;;;0.80;;
52072;SDS011;38074;51.232;6.826;2023-04-03T21:33:22;6.70;;;1.10;;
52072;SDS011;38074;51.232;6.826;2023-04-03T21:40:37;3.47;;;0.80;;
52072;SDS011;38074;51.232;6.826;2023-04-03T21:47:53;2.93;;;0.57;;
52072;SDS011;38074;51.232;6.826;2023-04-03T21:55:08;4.88;;;0.70;;
52072;SDS011;38074;51.232;6.826;2023-04-03T22:02:24;4.07;;;0.63;;
52072;SDS011;38074;51.232;6.826;2023-04-03T22:09:40;2.83;;;0.70;;
52072;SDS011;38074;51.232;6.826;2023-04-03T22:16:56;3.93;;;0.60;;
52072;SDS011;38074;51.232;6.826;2023-04-03T22:24:12;2.85;;;0.60;;
52072;SDS011;38074;51.232;6.826;2023-04-03T22:31:28;3.80;;;0.80;;
52072;SDS011;38074;51.232;6.826;2023-04-03T22:38:44;1.77;;;0.80;;
52072;SDS011;38074;51.232;6.826;2023-04-03T22:46:01;3.97;;;0.73;;
52072;SDS011;38074;51.232;6.826;2023-04-03T22:53:21;3.65;;;0.68;;
52072;SDS011;38074;51.232;6.826;2023-04-03T23:00:37;2.67;;;0.40;;
52072;SDS011;38074;51.232;6.826;2023-04-03T23:07:52;1.37;;;0.57;;
52072;SDS011;38074;51.232;6.826;2023-04-03T23:15:08;3.65;;;0.60;;
52072;SDS011;38074;51.232;6.826;2023-04-03T23:22:24;1.58;;;0.50;;
52072;SDS011;38074;51.232;6.826;2023-04-03T23:29:39;1.73;;;0.50;;
52072;SDS011;38074;51.232;6.826;2023-04-03T23:36:57;3.22;;;0.73;;
52072;SDS011;38074;51.232;6.826;2023-04-03T23:44:12;2.53;;;0.50;;
52072;SDS011;38074;51.232;6.826;2023-04-03T23:51:28;1.33;;;0.33;;
52072;SDS011;38074;51.232;6.826;2023-04-03T23:58:43;1.10;;;0.30;;
